KBDE/BDE METAR and TAF weather

Enter ICAO airport designator
Station Type Date Time Source
KBDE METAR 2020/09/27 01:53 UTC NOAA

KBDE 270153Z AUTO 21012G22KT 10SM FEW070 BKN085 OVC110 16/10 A2946 RMK AO2 PK WND 22032/0117 RAE0055 SLP981 P0000 T01560100


Station Type Date Time Source
KBDE Decoded METAR 2020/09/27 01:53 UTC NOAA

BAUDETTE INTERNATIONAL AIRPORT, MN, United States (KBDE) 48-44N 94-37W 329M
Sep 26, 2020 - 09:53 PM EDT / 2020.09.27 0153 UTC
Wind: from the SSW (210 degrees) at 14 MPH (12 KT) gusting to 25 MPH (22 KT):0
Visibility: 10 mile(s):0
Sky conditions: overcast
Precipitation last hour: A trace
Temperature: 60.1 F (15.6 C)
Dew Point: 50.0 F (10.0 C)
Relative Humidity: 69%
Pressure (altimeter): 29.46 in. Hg (997 hPa)
ob: KBDE 270153Z AUTO 21012G22KT 10SM FEW070 BKN085 OVC110 16/10 A2946 RMK AO2 PK WND 22032/0117 RAE0055 SLP981 P0000 T01560100
cycle: 2

Station Type Date Time Source
KBDE TAF UTC NOAA

Error!

Example: see airport list